Flight Track Log - Related Links

Times and Time Zones

All times are in EDT time to prevent confusion due to time zone crossing. See the UAL1005 flight status page for this flight to view local times or setup timezone preferences in your user account.

Time Position Orientation Groundspeed Altitude Reporting Facility
EDT Latitude Longitude Course Direction KTS MPH feet Rate Location/Type
Sun 12:06:32 AM -12.0500 -77.1000 162° South 177 204 2,100  Level FlightAware
Sun 12:06:54 AM -12.0670 -77.1050 196° South 187 215 2,700 1,429 Climbing FlightAware
Sun 12:07:14 AM -12.0840 -77.1120 202° Southwest 199 229 3,100 1,071 Climbing FlightAware
Sun 12:07:22 AM -12.0900 -77.1170 219° Southwest 202 232 3,200 750 Climbing FlightAware
Sun 12:07:30 AM -12.0950 -77.1220 224° Southwest 203 234 3,300 1,000 Climbing FlightAware
Sun 12:07:34 AM -12.0960 -77.1260 256° West 205 236 3,400 1,000 Climbing FlightAware
Sun 12:07:42 AM -12.0970 -77.1330 262° West 208 239 3,500 857 Climbing FlightAware
Sun 12:08:02 AM -12.0900 -77.1520 291° West 221 254 3,800 1,071 Climbing FlightAware
Sun 12:08:10 AM -12.0840 -77.1580 316° Northwest 227 261 4,000 1,500 Climbing FlightAware
Sun 12:08:26 AM -12.0710 -77.1700 318° Northwest 242 278 4,400 1,500 Climbing FlightAware
Sun 12:08:38 AM -12.0630 -77.1820 304° West 255 293 4,700 2,250 Climbing FlightAware
Sun 12:08:58 AM -12.0480 -77.2020 307° West 258 297 5,600 2,318 Climbing FlightAware
Sun 12:09:22 AM -12.0310 -77.2260 306° West 267 307 6,400 2,333 Climbing FlightAware
Sun 12:09:34 AM -12.0230 -77.2370 307° West 264 304 7,000 2,250 Climbing FlightAware
Sun 12:09:54 AM -12.0080 -77.2580 306° West 275 316 7,600 2,000 Climbing FlightAware
Sun 12:10:10 AM -11.9950 -77.2750 308° West 277 319 8,200 2,000 Climbing FlightAware
Sun 12:10:30 AM -11.9800 -77.2970 305° West 281 323 8,800 1,875 Climbing FlightAware
Sun 12:10:42 AM -11.9700 -77.3100 308° West 285 328 9,200 2,000 Climbing FlightAware
Sun 12:11:00 AM -11.9570 -77.3290 305° West 287 330 9,800 1,500 Climbing FlightAware
Sun 12:11:46 AM -11.9200 -77.3810 306° West 318 366 10,800 1,024 Climbing FlightAware
Sun 12:12:22 AM -11.8870 -77.4270 306° West 351 404 11,200 667 Climbing FlightAware
Sun 12:12:58 AM -11.8500 -77.4780 307° West 385 443 11,600 706 Climbing FlightAware
Sun 12:13:30 AM -11.8140 -77.5280 306° West 408 470 12,000 1,182 Climbing FlightAware
Sun 12:14:04 AM -11.7760 -77.5810 306° West 417 480 12,900 1,583 Climbing FlightAware
Sun 12:14:42 AM -11.7330 -77.6410 306° West 423 487 13,900 1,750 Climbing FlightAware
Sun 12:15:16 AM -11.6930 -77.6960 307° West 422 486 15,000 1,971 Climbing FlightAware
Sun 12:15:52 AM -11.6510 -77.7530 307° West 424 488 16,200 1,750 Climbing FlightAware
Sun 12:16:28 AM -11.6060 -77.8100 309° West 429 494 17,100 1,037 Climbing FlightAware
Sun 12:17:13 AM -11.5360 -77.8490 331° Northwest 428 493 17,600 370 Climbing FlightAware
Sun 12:17:49 AM -11.4820 -77.8770 333° Northwest 428 493 17,600  Level FlightAware
Sun 12:18:25 AM -11.4280 -77.9050 333° Northwest 428 493 17,600  Level FlightAware
Sun 12:19:01 AM -11.3740 -77.9330 333° Northwest 428 493 17,600  Level FlightAware
Sun 12:19:38 AM -11.3190 -77.9620 333° Northwest 428 493 17,600  Level FlightAware
Sun 12:20:14 AM -11.2650 -77.9900 333° Northwest 428 493 17,600 287 Level FlightAware
Sun 12:22:00 AM -11.0545 -77.9762 North  Level Estimated
Sun 12:23:00 AM -10.9354 -77.9685 North  Level Estimated
Sun 12:24:00 AM -10.8162 -77.9607 North  Level Estimated
Sun 12:25:00 AM -10.6971 -77.9529 North  Level Estimated
Sun 12:26:00 AM -10.5780 -77.9451 North  Level Estimated
Sun 12:27:00 AM -10.4588 -77.9374 North  Level Estimated
Sun 12:28:00 AM -10.3397 -77.9296 North  Level Estimated
Sun 12:29:00 AM -10.2205 -77.9219 North  Level Estimated
Sun 12:30:00 AM -10.1014 -77.9141 North  Level Estimated
Sun 12:31:00 AM -9.9823 -77.9064 North  Level Estimated
Sun 12:32:00 AM -9.8631 -77.8987 North  Level Estimated
Sun 12:33:00 AM -9.7440 -77.8910 North  Level Estimated
Sun 12:34:00 AM -9.6248 -77.8832 North  Level Estimated
Sun 12:35:00 AM -9.5057 -77.8755 North  Level Estimated
Sun 12:36:00 AM -9.3866 -77.8678 North  Level Estimated
Sun 12:37:00 AM -9.2677 -77.8601 North  Level Estimated
Sun 12:38:00 AM -9.1488 -77.8524 North  Level Estimated
Sun 12:39:00 AM -9.0299 -77.8448 North  Level Estimated
Sun 12:40:00 AM -8.9110 -77.8371 North  Level Estimated
Sun 12:41:00 AM -8.7922 -77.8294 North  Level Estimated
Sun 12:42:00 AM -8.6733 -77.8218 North  Level Estimated
Sun 12:43:00 AM -8.5544 -77.8141 North  Level Estimated
Sun 12:44:00 AM -8.4355 -77.8064 North  Level Estimated
Sun 12:45:00 AM -8.3166 -77.7988 North  Level Estimated
Sun 12:46:00 AM -8.1978 -77.7912 North  Level Estimated
Sun 12:47:00 AM -8.0789 -77.7835 North  Level Estimated
Sun 12:48:00 AM -7.9600 -77.7759 North  Level Estimated
Sun 12:49:00 AM -7.8411 -77.7683 North  Level Estimated
Sun 12:50:00 AM -7.7222 -77.7606 North  Level Estimated
Sun 12:51:00 AM -7.6033 -77.7530 North  Level Estimated
Sun 12:52:00 AM -7.4844 -77.7454 North  Level Estimated
Sun 12:53:00 AM -7.3656 -77.7378 North  Level Estimated
Sun 12:54:00 AM -7.2467 -77.7302 North  Level Estimated
Sun 12:55:00 AM -7.1278 -77.7226 North  Level Estimated
Sun 12:56:00 AM -7.0089 -77.7150 North  Level Estimated
Sun 12:57:00 AM -6.8900 -77.7074 North  Level Estimated
Sun 12:58:00 AM -6.7711 -77.6998 North  Level Estimated
Sun 12:59:00 AM -6.6522 -77.6922 North  Level Estimated
Sun 01:00:00 AM -6.5333 -77.6846 North  Level Estimated
Sun 01:01:00 AM -6.4144 -77.6770 North  Level Estimated
Sun 01:02:00 AM -6.2955 -77.6695 North  Level Estimated
Sun 01:03:00 AM -6.1767 -77.6619 North  Level Estimated
Sun 01:04:00 AM -6.0578 -77.6543 North  Level Estimated
Sun 01:05:00 AM -5.9389 -77.6468 North  Level Estimated
Sun 01:06:00 AM -5.8200 -77.6392 North  Level Estimated
Sun 01:07:00 AM -5.7011 -77.6316 North  Level Estimated
Sun 01:08:00 AM -5.5822 -77.6241 North  Level Estimated
Sun 01:09:00 AM -5.4633 -77.6165 North  Level Estimated
Sun 01:10:00 AM -5.3444 -77.6090 North  Level Estimated
Sun 01:11:00 AM -5.2255 -77.6014 North  Level Estimated
Sun 01:12:00 AM -5.1066 -77.5939 North  Level Estimated
Sun 01:13:00 AM -4.9878 -77.5863 North  Level Estimated
Sun 01:14:00 AM -4.8689 -77.5788 North  Level Estimated
Sun 01:15:00 AM -4.7500 -77.5713 North  Level Estimated
Sun 01:16:00 AM -4.6311 -77.5637 North  Level Estimated
Sun 01:16:12 AM -4.1530 -79.6040 North 34,000  Level FlightAware
Sun 01:16:42 AM -4.0890 -79.6120 353° North 457 526 34,000  Level FlightAware
Sun 01:17:17 AM -4.0130 -79.6210 353° North 456 525 34,000  Level FlightAware
Sun 01:17:57 AM -3.9290 -79.6320 353° North 456 525 34,000  Level FlightAware
Sun 01:18:32 AM -3.8620 -79.6400 353° North 456 525 34,000  Level FlightAware
Sun 01:19:02 AM -3.7960 -79.6490 352° North 455 524 34,000  Level FlightAware
Sun 01:19:42 AM -3.7080 -79.6600 353° North 455 524 34,000  Level FlightAware
Sun 01:20:12 AM -3.6460 -79.6680 353° North 454 522 34,000  Level FlightAware
Sun 01:20:47 AM -3.5740 -79.6770 353° North 454 522 34,000  Level FlightAware
Sun 01:21:27 AM -3.4890 -79.6880 353° North 455 524 34,000  Level FlightAware
Sun 01:22:02 AM -3.4170 -79.6970 353° North 455 524 34,000  Level FlightAware
Sun 01:22:32 AM -3.3530 -79.7050 353° North 454 522 34,000  Level FlightAware
Sun 01:23:07 AM -3.2800 -79.7140 353° North 455 524 34,000  Level FlightAware
Sun 01:23:47 AM -3.1970 -79.7250 352° North 456 525 34,000  Level FlightAware
Sun 01:24:17 AM -3.1320 -79.7330 353° North 456 525 34,000  Level FlightAware
Sun 01:24:52 AM -3.0590 -79.7430 352° North 456 525 34,000  Level FlightAware
Sun 01:25:32 AM -2.9760 -79.7530 353° North 456 525 34,000  Level FlightAware
Sun 01:26:07 AM -2.9020 -79.7630 352° North 457 526 34,000  Level FlightAware
Sun 01:26:37 AM -2.8380 -79.7710 353° North 457 526 34,000  Level FlightAware
Sun 01:27:12 AM -2.7650 -79.7800 353° North 457 526 34,000  Level FlightAware
Sun 01:27:52 AM -2.6820 -79.7910 352° North 458 527 34,000  Level FlightAware
Sun 01:28:22 AM -2.6220 -79.7990 352° North 458 527 34,000  Level FlightAware
Sun 01:28:57 AM -2.5430 -79.8090 353° North 459 528 34,000  Level FlightAware
Sun 01:29:37 AM -2.4580 -79.8200 353° North 459 528 34,000  Level FlightAware
Sun 01:30:07 AM -2.3970 -79.8280 353° North 459 528 34,000  Level FlightAware
Sun 01:31:02 AM -2.2840 -79.8420 353° North 459 528 34,000  Level FlightAware
Sun 01:31:37 AM -2.2080 -79.8520 353° North 459 528 34,000  Level FlightAware
Sun 01:32:18 AM -2.1230 -79.8620 353° North 457 526 34,000  Level FlightAware
Sun 01:32:53 AM -2.0480 -79.8640 358° North 456 525 34,000  Level FlightAware
Sun 01:33:33 AM -1.9610 -79.8640 360° North 456 525 34,000  Level FlightAware
Sun 01:34:08 AM -1.8900 -79.8630 North 457 526 34,000  Level FlightAware
Sun 01:34:43 AM -1.8140 -79.8620 North 457 526 34,000  Level FlightAware
Sun 01:35:18 AM -1.7400 -79.8620 360° North 457 526 34,000  Level FlightAware
Sun 01:35:53 AM -1.6600 -79.8610 North 457 526 34,000  Level FlightAware
Sun 01:36:28 AM -1.5880 -79.8600 North 457 526 34,000  Level FlightAware
Sun 01:37:03 AM -1.5120 -79.8600 360° North 457 526 34,000  Level FlightAware
Sun 01:37:38 AM -1.4390 -79.8590 North 457 526 34,000  Level FlightAware
Sun 01:38:13 AM -1.3640 -79.8590 360° North 459 528 34,000  Level FlightAware
Sun 01:38:48 AM -1.2890 -79.8580 North 461 531 34,000  Level FlightAware
Sun 01:39:23 AM -1.2150 -79.8580 360° North 462 532 34,000  Level FlightAware
Sun 01:39:58 AM -1.1390 -79.8570 North 464 534 34,000  Level FlightAware
Sun 01:40:33 AM -1.0650 -79.8560 North 464 534 34,000  Level FlightAware
Sun 01:41:08 AM -0.9880 -79.8560 360° North 465 535 34,000  Level FlightAware
Sun 01:41:43 AM -0.9130 -79.8550 North 466 536 34,000  Level FlightAware
Sun 01:42:18 AM -0.8370 -79.8550 360° North 467 537 34,000  Level FlightAware
Sun 01:42:48 AM -0.7740 -79.8540 North 467 537 34,000  Level FlightAware
Sun 01:43:37 AM -0.6830 -79.8530 North 467 537 34,000  Level FlightAware
Sun 01:44:13 AM -0.6170 -79.8520 North 467 537 34,000  Level FlightAware
Sun 01:44:49 AM -0.5510 -79.8500 North 467 537 34,000  Level FlightAware
Sun 01:45:25 AM -0.4850 -79.8490 North 467 537 34,000  Level FlightAware
Sun 01:46:01 AM -0.4190 -79.8480 North 467 537 34,000  Level FlightAware
Sun 01:46:37 AM -0.3530 -79.8470 North 467 537 34,000  Level FlightAware
Sun 01:47:14 AM -0.2850 -79.8460 North 467 537 34,000  Level FlightAware
Sun 01:47:50 AM -0.2190 -79.8450 North 467 537 34,000  Level FlightAware
Sun 01:48:26 AM -0.1530 -79.8430 North 467 537 34,000  Level FlightAware
Sun 01:49:02 AM -0.0870 -79.8420 North 467 537 34,000  Level FlightAware
Sun 01:49:38 AM -0.0210 -79.8410 North 467 537 34,000  Level FlightAware
Sun 01:50:14 AM 0.0450 -79.8400 North 467 537 34,000  Level FlightAware
Sun 01:50:50 AM 0.1120 -79.8390 North 467 537 34,000  Level FlightAware
Sun 01:51:26 AM 0.1780 -79.8380 North 467 537 34,000  Level FlightAware
Sun 01:52:02 AM 0.2440 -79.8370 North 467 537 34,000  Level FlightAware
Sun 01:52:38 AM 0.3100 -79.8350 North 467 537 34,000 27 Level FlightAware
Sun 01:55:00 AM 0.5901 -79.8026 North  Level Estimated
Sun 01:56:00 AM 0.7084 -79.7890 North  Level Estimated
Sun 01:57:00 AM 0.8267 -79.7753 North  Level Estimated
Sun 01:58:00 AM 0.9451 -79.7616 North  Level Estimated
Sun 01:59:00 AM 1.0634 -79.7479 North  Level Estimated
Sun 02:00:00 AM 1.1818 -79.7343 North  Level Estimated
Sun 02:01:00 AM 1.3001 -79.7206 North  Level Estimated
Sun 02:02:00 AM 1.4184 -79.7069 North  Level Estimated
Sun 02:03:00 AM 1.5368 -79.6932 North  Level Estimated
Sun 02:04:00 AM 1.6551 -79.6795 North  Level Estimated
Sun 02:05:00 AM 1.7735 -79.6658 North  Level Estimated
Sun 02:06:00 AM 1.8918 -79.6522 North  Level Estimated
Sun 02:07:00 AM 2.0101 -79.6385 North  Level Estimated
Sun 02:08:00 AM 2.1285 -79.6248 North  Level Estimated
Sun 02:09:00 AM 2.2468 -79.6111 North  Level Estimated
Sun 02:10:00 AM 2.3652 -79.5974 North  Level Estimated
Sun 02:11:00 AM 2.4835 -79.5837 North  Level Estimated
Sun 02:12:00 AM 2.6019 -79.5700 North  Level Estimated
Sun 02:13:00 AM 2.7202 -79.5563 North  Level Estimated
Sun 02:14:00 AM 2.8385 -79.5426 North  Level Estimated
Sun 02:15:00 AM 2.9569 -79.5289 North  Level Estimated
Sun 02:16:00 AM 3.0752 -79.5152 North  Level Estimated
Sun 02:17:00 AM 3.1936 -79.5014 North  Level Estimated
Sun 02:18:00 AM 3.3119 -79.4877 North  Level Estimated
Sun 02:19:00 AM 3.4302 -79.4740 North  Level Estimated
Sun 02:20:00 AM 3.5485 -79.4603 North  Level Estimated
Sun 02:21:00 AM 3.6669 -79.4465 North  Level Estimated
Sun 02:22:00 AM 3.7852 -79.4328 North  Level Estimated
Sun 02:23:00 AM 3.9035 -79.4191 North  Level Estimated
Sun 02:24:00 AM 4.0219 -79.4053 North  Level Estimated
Sun 02:25:00 AM 4.1402 -79.3916 North  Level Estimated
Sun 02:26:00 AM 4.2585 -79.3779 North  Level Estimated
Sun 02:27:00 AM 4.3769 -79.3641 North  Level Estimated
Sun 02:28:00 AM 4.4952 -79.3503 North  Level Estimated
Sun 02:29:00 AM 4.6135 -79.3366 North  Level Estimated
Sun 02:30:00 AM 4.7319 -79.3228 North  Level Estimated
Sun 02:31:00 AM 4.8502 -79.3091 North  Level Estimated
Sun 02:32:00 AM 4.9685 -79.2953 North  Level Estimated
Sun 02:33:00 AM 5.0868 -79.2815 North  Level Estimated
Sun 02:34:00 AM 5.2052 -79.2677 North  Level Estimated
Sun 02:35:00 AM 5.3235 -79.2539 North  Level Estimated
Sun 02:36:00 AM 5.4418 -79.2402 North  Level Estimated
Sun 02:37:00 AM 5.5602 -79.2263 North  Level Estimated
Sun 02:38:00 AM 5.6785 -79.2125 North  Level Estimated
Sun 02:39:00 AM 5.7968 -79.1987 North  Level Estimated
Sun 02:40:00 AM 5.9152 -79.1849 North  Level Estimated
Sun 02:41:00 AM 6.0335 -79.1711 North  Level Estimated
Sun 02:42:00 AM 6.1518 -79.1573 North  Level Estimated
Sun 02:43:00 AM 6.2701 -79.1434 North  Level Estimated
Sun 02:44:00 AM 6.3885 -79.1296 North  Level Estimated
Sun 02:45:00 AM 6.5068 -79.1157 North  Level Estimated
Sun 02:46:00 AM 6.6251 -79.1019 North  Level Estimated
Sun 02:47:00 AM 6.7435 -79.0880 North  Level Estimated
Sun 02:48:00 AM 6.8618 -79.0742 North  Level Estimated
Sun 02:49:00 AM 6.9801 -79.0603 North  Level Estimated
Sun 02:50:00 AM 7.0985 -79.0464 North  Level Estimated
Sun 02:51:00 AM 7.2168 -79.0325 North  Level Estimated
Sun 02:52:00 AM 7.3351 -79.0186 North  Level Estimated
Sun 02:53:00 AM 7.4534 -79.0047 North  Level Estimated
Sun 02:54:00 AM 7.5717 -78.9908 North  Level Estimated
Sun 02:55:00 AM 7.6901 -78.9769 North  Level Estimated
Sun 02:56:00 AM 7.8084 -78.9630 North  Level Estimated
Sun 02:57:00 AM 7.9267 -78.9490 North  Level Estimated
Sun 02:58:00 AM 8.0450 -78.9351 North  Level Estimated
Sun 02:59:00 AM 8.1633 -78.9211 North  Level Estimated
Sun 03:00:00 AM 8.2817 -78.9072 North  Level Estimated
Sun 03:01:00 AM 8.4000 -78.8932 North  Level Estimated
Sun 03:02:00 AM 8.5183 -78.8792 North  Level Estimated
Sun 03:03:00 AM 8.6366 -78.8652 North  Level Estimated
Sun 03:04:00 AM 8.7549 -78.8512 North  Level Estimated
Sun 03:04:51 AM 9.7710 -79.3630 North 450 518 36,000  Level FlightAware
Sun 03:05:00 AM 8.8733 -78.8372 North  Level Estimated
Sun 03:05:27 AM 9.8470 -79.3600 North 450 518 36,000  Level FlightAware
Sun 03:06:02 AM 9.9230 -79.3580 North 451 519 36,000  Level FlightAware
Sun 03:06:42 AM 10.0080 -79.3550 North 451 519 36,000  Level FlightAware
Sun 03:07:12 AM 10.0710 -79.3530 North 452 520 36,000  Level FlightAware
Sun 03:07:47 AM 10.1480 -79.3510 North 452 520 36,000  Level FlightAware
Sun 03:08:07 AM 10.1890 -79.3500 North 453 521 36,000  Level FlightAware
Sun 03:08:42 AM 10.2640 -79.3550 356° North 455 524 36,000  Level FlightAware
Sun 03:09:22 AM 10.3490 -79.3640 354° North 454 522 36,000  Level FlightAware
Sun 03:09:52 AM 10.4140 -79.3710 354° North 454 522 36,000  Level FlightAware
Sun 03:10:28 AM 10.4900 -79.3790 354° North 454 522 36,000  Level FlightAware
Sun 03:11:07 AM 10.5750 -79.3870 355° North 454 522 36,000  Level FlightAware
Sun 03:11:28 AM 10.6140 -79.3910 354° North 453 521 36,000  Level FlightAware
Sun 03:12:07 AM 10.7000 -79.3990 355° North 453 521 36,000  Level FlightAware
Sun 03:12:47 AM 10.7890 -79.4050 356° North 451 519 36,000  Level FlightAware
Sun 03:13:23 AM 10.8620 -79.4070 358° North 451 519 36,000  Level FlightAware
Sun 03:13:59 AM 10.9390 -79.4070 360° North 451 519 36,000  Level FlightAware
Sun 03:14:39 AM 11.0250 -79.4050 North 450 518 36,000  Level FlightAware
Sun 03:15:15 AM 11.1010 -79.4040 North 450 518 36,000  Level FlightAware
Sun 03:15:44 AM 11.1630 -79.4030 North 449 517 36,000  Level FlightAware
Sun 03:16:20 AM 11.2410 -79.4010 North 448 516 36,000  Level FlightAware
Sun 03:17:00 AM 11.3250 -79.3970 North 447 514 36,000  Level FlightAware
Sun 03:17:31 AM 11.3900 -79.3940 North 447 514 36,000  Level FlightAware
Sun 03:18:05 AM 11.4590 -79.3900 North 454 522 36,000  Level FlightAware
Sun 03:18:45 AM 11.5390 -79.3870 North 453 521 36,000  Level FlightAware
Sun 03:19:27 AM 11.6200 -79.3830 North 453 521 36,000  Level FlightAware
Sun 03:20:01 AM 11.7030 -79.3790 North 452 520 36,000  Level FlightAware
Sun 03:20:31 AM 11.7670 -79.3760 North 452 520 36,000  Level FlightAware
Sun 03:21:26 AM 11.8860 -79.3700 North 453 521 36,000  Level FlightAware
Sun 03:21:56 AM 11.9460 -79.3670 North 453 521 36,000  Level FlightAware
Sun 03:22:51 AM 12.0500 -79.3630 North 453 521 36,000  Level FlightAware
Sun 03:23:26 AM 12.1360 -79.3580 North 454 522 36,000  Level FlightAware
Sun 03:24:03 AM 12.2020 -79.3560 North 454 522 36,000  Level FlightAware
Sun 03:24:39 AM 12.2660 -79.3540 North 454 522 36,000  Level FlightAware
Sun 03:25:15 AM 12.3300 -79.3510 North 454 522 36,000  Level FlightAware
Sun 03:25:52 AM 12.3960 -79.3490 North 454 522 36,000  Level FlightAware
Sun 03:26:28 AM 12.4610 -79.3470 North 454 522 36,000  Level FlightAware
Sun 03:27:05 AM 12.5270 -79.3440 North 454 522 36,000  Level FlightAware
Sun 03:27:41 AM 12.5910 -79.3420 North 454 522 36,000  Level FlightAware
Sun 03:28:17 AM 12.6550 -79.3400 North 454 522 36,000  Level FlightAware
Sun 03:28:53 AM 12.7190 -79.3380 North 454 522 36,000  Level FlightAware
Sun 03:29:30 AM 12.7850 -79.3350 North 454 522 36,000  Level FlightAware
Sun 03:30:06 AM 12.8490 -79.3330 North 454 522 36,000  Level FlightAware
Sun 03:30:42 AM 12.9140 -79.3310 North 454 522 36,000  Level FlightAware
Sun 03:31:18 AM 12.9780 -79.3280 North 454 522 36,000  Level FlightAware
Sun 03:31:54 AM 13.0420 -79.3260 North 454 522 36,000  Level FlightAware
Sun 03:32:30 AM 13.1060 -79.3240 North 454 522 36,000  Level FlightAware
Sun 03:33:06 AM 13.1710 -79.3210 North 454 522 36,000  Level FlightAware
Sun 03:35:00 AM 13.3949 -79.2871 North  Level Estimated
Sun 03:36:00 AM 13.5128 -79.2693 North  Level Estimated
Sun 03:37:00 AM 13.6306 -79.2514 North  Level Estimated
Sun 03:38:00 AM 13.7485 -79.2335 North  Level Estimated
Sun 03:39:00 AM 13.8663 -79.2156 North  Level Estimated
Sun 03:40:00 AM 13.9842 -79.1977 North  Level Estimated
Sun 03:41:00 AM 14.1020 -79.1798 North  Level Estimated
Sun 03:42:00 AM 14.2199 -79.1618 North  Level Estimated
Sun 03:43:00 AM 14.3377 -79.1438 North  Level Estimated
Sun 03:44:00 AM 14.4556 -79.1258 North  Level Estimated
Sun 03:45:00 AM 14.5734 -79.1078 North  Level Estimated
Sun 03:46:00 AM 14.6912 -79.0898 North  Level Estimated
Sun 03:47:00 AM 14.8091 -79.0717 North  Level Estimated
Sun 03:48:00 AM 14.9269 -79.0536 North  Level Estimated
Sun 03:49:00 AM 15.0448 -79.0356 North  Level Estimated
Sun 03:50:00 AM 15.1626 -79.0174 North  Level Estimated
Sun 03:51:00 AM 15.2804 -78.9993 North  Level Estimated
Sun 03:52:00 AM 15.3982 -78.9811 North  Level Estimated
Sun 03:53:00 AM 15.5161 -78.9630 North  Level Estimated
Sun 03:54:00 AM 15.6339 -78.9448 North  Level Estimated
Sun 03:55:00 AM 15.7517 -78.9266 North  Level Estimated
Sun 03:56:00 AM 15.8696 -78.9083 North  Level Estimated
Sun 03:57:00 AM 15.9874 -78.8901 North  Level Estimated
Sun 03:58:00 AM 16.1052 -78.8718 North  Level Estimated
Sun 03:59:00 AM 16.2230 -78.8535 North  Level Estimated
Sun 04:00:00 AM 16.3408 -78.8351 North  Level Estimated
Sun 04:01:00 AM 16.4587 -78.8168 North  Level Estimated
Sun 04:02:00 AM 16.5765 -78.7984 North  Level Estimated
Sun 04:03:00 AM 16.6943 -78.7800 North  Level Estimated
Sun 04:04:00 AM 16.8121 -78.7616 North  Level Estimated
Sun 04:05:00 AM 16.9299 -78.7432 North  Level Estimated
Sun 04:06:00 AM 17.0477 -78.7247 North  Level Estimated
Sun 04:07:00 AM 17.1655 -78.7062 North  Level Estimated
Sun 04:08:00 AM 17.2833 -78.6877 North  Level Estimated
Sun 04:09:00 AM 17.4011 -78.6692 North  Level Estimated
Sun 04:10:00 AM 17.5189 -78.6506 North  Level Estimated
Sun 04:11:00 AM 17.6430 -78.6588 356° North  Level FlightAware
Sun 04:12:00 AM 17.7670 -78.6670 356° North  Level FlightAware
Sun 04:13:00 AM 17.8911 -78.6752 356° North  Level FlightAware
Sun 04:14:00 AM 18.0151 -78.6835 356° North  Level FlightAware
Sun 04:15:00 AM 18.1392 -78.6917 356° North  Level FlightAware
Sun 04:16:00 AM 18.2632 -78.6999 356° North  Level FlightAware
Sun 04:17:00 AM 18.3873 -78.7082 356° North  Level FlightAware
Sun 04:18:00 AM 18.5113 -78.7165 356° North  Level FlightAware
Sun 04:19:00 AM 18.6354 -78.7247 356° North  Level FlightAware
Sun 04:20:00 AM 18.7594 -78.7330 356° North  Level FlightAware
Sun 04:21:00 AM 18.8834 -78.7413 356° North  Level FlightAware
Sun 04:22:00 AM 19.0075 -78.7497 356° North  Level FlightAware
Sun 04:23:00 AM 19.1315 -78.7580 356° North  Level FlightAware
Sun 04:24:00 AM 19.2556 -78.7663 356° North  Level FlightAware
Sun 04:25:00 AM 19.3796 -78.7747 356° North  Level FlightAware
Sun 04:26:00 AM 19.5036 -78.7831 356° North  Level FlightAware
Sun 04:27:00 AM 19.6277 -78.7914 356° North  Level FlightAware
Sun 04:28:00 AM 19.7517 -78.7998 356° North  Level FlightAware
Sun 04:29:00 AM 19.8758 -78.8082 356° North  Level FlightAware
Sun 04:30:00 AM 19.9998 -78.8167 356° North  Level FlightAware
Sun 04:31:00 AM 20.1240 -78.8238 357° North  Level FlightAware
Sun 04:32:00 AM 20.2481 -78.8310 357° North  Level FlightAware
Sun 04:33:00 AM 20.3722 -78.8381 357° North  Level FlightAware
Sun 04:34:00 AM 20.4963 -78.8453 357° North  Level FlightAware
Sun 04:35:00 AM 20.6204 -78.8525 357° North  Level FlightAware
Sun 04:36:00 AM 20.7445 -78.8597 357° North  Level FlightAware
Sun 04:37:00 AM 20.8686 -78.8670 357° North  Level FlightAware
Sun 04:38:00 AM 20.9927 -78.8742 357° North  Level FlightAware
Sun 04:39:00 AM 21.1168 -78.8814 357° North  Level FlightAware
Sun 04:40:00 AM 21.2410 -78.8887 357° North  Level FlightAware
Sun 04:41:00 AM 21.3651 -78.8960 357° North  Level FlightAware
Sun 04:42:00 AM 21.4892 -78.9032 357° North  Level FlightAware
Sun 04:43:00 AM 21.6133 -78.9105 357° North  Level FlightAware
Sun 04:44:00 AM 21.7374 -78.9178 357° North  Level FlightAware
Sun 04:45:00 AM 21.8615 -78.9251 357° North  Level FlightAware
Sun 04:46:00 AM 21.9856 -78.9325 357° North  Level FlightAware
Sun 04:47:00 AM 22.1097 -78.9405 357° North  Level FlightAware
Sun 04:48:00 AM 22.2337 -78.9487 357° North  Level FlightAware
Sun 04:49:00 AM 22.3578 -78.9569 357° North  Level FlightAware
Sun 04:50:00 AM 22.4818 -78.9651 357° North  Level FlightAware
Sun 04:50:05 AM 23.2380 -78.9650 357° North 469 540 36,000  Level FlightAware
Sun 04:50:42 AM 23.3060 -78.9740 353° North 469 540 36,000  Level FlightAware
Sun 04:51:22 AM 23.3910 -78.9850 353° North 469 540 36,000  Level FlightAware
Sun 04:51:58 AM 23.4570 -78.9930 354° North 469 540 36,000  Level FlightAware
Sun 04:52:34 AM 23.5230 -79.0020 353° North 469 540 36,000  Level FlightAware
Sun 04:53:10 AM 23.5890 -79.0110 353° North 469 540 36,000  Level FlightAware
Sun 04:54:02 AM 23.7410 -79.0290 354° North 457 526 36,000  Level FlightAware
Sun 04:54:39 AM 23.8070 -79.0380 353° North 457 526 36,000  Level FlightAware
Sun 04:55:11 AM 23.8990 -79.0490 354° North 456 525 36,000  Level FlightAware
Sun 04:56:00 AM 24.0080 -79.0520 359° North 469 540 36,000  Level FlightAware
Sun 04:56:35 AM 24.0800 -79.0460 North 471 542 36,000  Level FlightAware
Sun 04:57:15 AM 24.1700 -79.0360 North 471 542 36,000  Level FlightAware
Sun 04:57:55 AM 24.2560 -79.0270 North 472 543 36,000  Level FlightAware
Sun 04:58:25 AM 24.3220 -79.0200 North 472 543 36,000  Level FlightAware
Sun 04:59:00 AM 24.3960 -79.0120 North 471 542 36,000  Level FlightAware
Sun 04:59:35 AM 24.4750 -79.0040 North 471 542 36,000  Level FlightAware
Sun 05:00:15 AM 24.5600 -78.9950 North 470 541 36,000  Level FlightAware
Sun 05:00:46 AM 24.6260 -78.9890 North 469 540 36,000  Level FlightAware
Sun 05:01:20 AM 24.7020 -78.9810 North 469 540 36,000  Level FlightAware
Sun 05:02:00 AM 24.7890 -78.9710 North 468 539 36,000  Level FlightAware
Sun 05:02:30 AM 24.8550 -78.9640 North 468 539 36,000 92 Level FlightAware
Sun 05:03:05 AM 24.9300 -78.9560 North 466 536 36,100 592 Climbing FlightAware
Sun 05:03:41 AM 25.0060 -78.9480 North 465 535 36,700 720 Climbing FlightAware
Sun 05:04:20 AM 25.0890 -78.9400 North 456 525 37,000 257 Climbing FlightAware
Sun 05:04:51 AM 25.1560 -78.9330 North 456 525 37,000  Level FlightAware
Sun 05:05:26 AM 25.2300 -78.9250 North 454 522 37,000  Level FlightAware
Sun 05:06:10 AM 25.3230 -78.9150 North 455 524 37,000  Level FlightAware
Sun 05:06:45 AM 25.4000 -78.9060 North 455 524 37,000  Level FlightAware
Sun 05:07:20 AM 25.4770 -78.8980 North 455 524 37,000  Level FlightAware
Sun 05:08:00 AM 25.5610 -78.8890 North 454 522 37,000  Level FlightAware
Sun 05:08:35 AM 25.6350 -78.8810 North 453 521 37,000  Level FlightAware
Sun 05:09:10 AM 25.7100 -78.8730 North 452 520 37,000  Level FlightAware
Sun 05:09:45 AM 25.7860 -78.8650 North 452 520 37,000  Level FlightAware
Sun 05:10:20 AM 25.8590 -78.8570 North 451 519 37,000  Level FlightAware
Sun 05:10:56 AM 25.9340 -78.8490 North 451 519 37,000  Level FlightAware
Sun 05:11:32 AM 26.0130 -78.8400 North 458 527 37,000  Level FlightAware
Sun 05:12:08 AM 26.0890 -78.8320 North 457 526 37,000  Level FlightAware
Sun 05:12:44 AM 26.1630 -78.8240 North 457 526 37,000  Level FlightAware
Sun 05:13:16 AM 26.2320 -78.8160 North 456 525 37,000  Level FlightAware
Sun 05:13:50 AM 26.3010 -78.8090 North 456 525 37,000  Level FlightAware
Sun 05:14:26 AM 26.3700 -78.8010 North 455 524 37,000  Level FlightAware
Sun 05:15:05 AM 26.4530 -78.7920 North 456 525 37,000  Level FlightAware
Sun 05:15:46 AM 26.5470 -78.7820 North 456 525 37,000  Level FlightAware
Sun 05:16:18 AM 26.6150 -78.7750 North 457 526 37,000  Level FlightAware
Sun 05:16:54 AM 26.6910 -78.7660 North 456 525 37,000  Level FlightAware
Sun 05:17:30 AM 26.7680 -78.7600 North 454 522 37,000  Level FlightAware
Sun 05:18:06 AM 26.8430 -78.7540 North 454 522 37,000  Level FlightAware
Sun 05:18:38 AM 26.9110 -78.7490 North 455 524 37,000  Level FlightAware
Sun 05:19:08 AM 26.9700 -78.7450 North 454 522 37,000  Level FlightAware
Sun 05:19:50 AM 27.0560 -78.7380 North 455 524 37,000  Level FlightAware
Sun 05:20:20 AM 27.1130 -78.7330 North 455 524 37,000  Level FlightAware
Sun 05:20:55 AM 27.1940 -78.7270 North 448 516 37,000  Level FlightAware
Sun 05:21:35 AM 27.2790 -78.7200 North 450 518 37,000  Level FlightAware
Sun 05:22:14 AM 27.3660 -78.7130 North 459 528 37,000  Level FlightAware
Sun 05:22:50 AM 27.4330 -78.7070 North 452 520 37,000  Level FlightAware
Sun 05:23:45 AM 27.5380 -78.6990 North 453 521 37,000  Level FlightAware
Sun 05:24:24 AM 27.6420 -78.6910 North 462 532 37,000  Level FlightAware
Sun 05:25:05 AM 27.7170 -78.6860 North 462 532 37,000  Level FlightAware
Sun 05:25:41 AM 27.7820 -78.6820 North 462 532 37,000  Level FlightAware
Sun 05:26:29 AM 27.8589 -78.6817 North 454 522 37,000  Level Miami Center
Sun 05:27:26 AM 27.9864 -78.6719 North 461 531 37,000  Level Miami Center
Sun 05:28:26 AM 28.1161 -78.6597 North 461 531 37,000  Level Miami Center
Sun 05:34:04 AM 28.8920 -78.5900 North 472 543 37,000  Level FlightAware
Sun 05:34:45 AM 28.9650 -78.5840 North 472 543 37,000  Level FlightAware
Sun 05:35:21 AM 29.0320 -78.5790 North 472 543 37,000  Level FlightAware
Sun 05:35:57 AM 29.0980 -78.5740 North 472 543 37,000  Level FlightAware
Sun 05:36:33 AM 29.1650 -78.5680 North 472 543 37,000  Level FlightAware
Sun 05:37:09 AM 29.2320 -78.5630 North 472 543 37,000  Level FlightAware
Sun 05:37:45 AM 29.2980 -78.5580 North 472 543 37,000  Level FlightAware
Sun 05:38:21 AM 29.3650 -78.5520 North 472 543 37,000  Level FlightAware
Sun 05:38:57 AM 29.4320 -78.5470 North 472 543 37,000  Level FlightAware
Sun 05:39:33 AM 29.4980 -78.5410 North 472 543 37,000  Level FlightAware
Sun 05:40:09 AM 29.5650 -78.5360 North 472 543 37,000  Level FlightAware
Sun 05:40:45 AM 29.6320 -78.5310 North 472 543 37,000  Level FlightAware
Sun 05:41:23 AM 29.7020 -78.5250 North 472 543 37,000  Level FlightAware
Sun 05:41:59 AM 29.7690 -78.5200 North 472 543 37,000  Level FlightAware
Sun 05:42:35 AM 29.8350 -78.5140 North 472 543 37,000  Level FlightAware
Sun 05:43:12 AM 29.9040 -78.5090 North 472 543 37,000  Level FlightAware
Sun 05:43:48 AM 29.9710 -78.5030 North 472 543 37,000  Level FlightAware
Sun 05:44:30 AM 30.2364 -78.4883 North 480 552 37,000  Level Jacksonville Center
Sun 05:45:30 AM 30.3653 -78.4775 North 470 541 37,000  Level Jacksonville Center
Sun 05:46:30 AM 30.5133 -78.4658 North 486 559 37,000  Level Jacksonville Center
Sun 05:47:30 AM 30.6381 -78.4553 North 478 550 37,000  Level Jacksonville Center
Sun 05:48:30 AM 30.7714 -78.4442 North 478 550 37,000  Level Jacksonville Center
Sun 05:49:30 AM 30.9003 -78.4333 North 476 548 37,000  Level Jacksonville Center
Sun 05:50:30 AM 31.0356 -78.4197 North 464 534 37,000  Level Jacksonville Center
Sun 05:51:30 AM 31.1606 -78.4136 North 464 534 37,000  Level Jacksonville Center
Sun 05:52:30 AM 31.2917 -78.4025 North 464 534 37,000  Level Jacksonville Center
Sun 05:53:30 AM 31.4206 -78.3914 North 459 528 37,000  Level Jacksonville Center
Sun 05:59:31 AM 32.2130 -78.3130 North 444 511 37,000  Level FlightAware
Sun 06:00:26 AM 32.3230 -78.3040 North 444 511 37,000  Level FlightAware
Sun 06:00:56 AM 32.3880 -78.2980 North 443 510 37,000  Level FlightAware
Sun 06:01:36 AM 32.4650 -78.2910 North 443 510 37,000  Level FlightAware
Sun 06:02:11 AM 32.5400 -78.2850 North 443 510 37,000  Level FlightAware
Sun 06:02:51 AM 32.6230 -78.2780 North 443 510 37,000  Level FlightAware
Sun 06:03:21 AM 32.6770 -78.2730 North 443 510 37,000  Level FlightAware
Sun 06:04:01 AM 32.7630 -78.2650 North 442 509 37,000  Level FlightAware
Sun 06:04:36 AM 32.8380 -78.2590 North 441 507 37,000  Level FlightAware
Sun 06:05:11 AM 32.9080 -78.2530 North 440 506 37,000  Level FlightAware
Sun 06:06:01 AM 33.0110 -78.2430 North 438 504 37,000  Level FlightAware
Sun 06:06:36 AM 33.0730 -78.2380 North 436 502 37,000  Level FlightAware
Sun 06:07:32 AM 33.1770 -78.2290 North 434 499 37,000  Level FlightAware
Sun 06:08:04 AM 33.2570 -78.2220 North 432 497 37,000  Level FlightAware
Sun 06:09:00 AM 33.3600 -78.2130 North 431 496 37,000  Level FlightAware
Sun 06:09:39 AM 33.4450 -78.2050 North 430 495 37,000  Level FlightAware
Sun 06:10:16 AM 33.5080 -78.1990 North 430 495 37,000  Level FlightAware
Sun 06:10:48 AM 33.5750 -78.1930 North 430 495 37,000  Level FlightAware
Sun 06:11:25 AM 33.6420 -78.1870 North 431 496 37,000  Level FlightAware
Sun 06:12:01 AM 33.7030 -78.1820 North 431 496 37,000  Level FlightAware
Sun 06:12:30 AM 33.7880 -78.1740 North 433 498 37,000  Level FlightAware
Sun 06:13:05 AM 33.8560 -78.1680 North 434 499 37,000  Level FlightAware
Sun 06:13:40 AM 33.9290 -78.1610 North 435 501 37,000  Level FlightAware
Sun 06:14:20 AM 34.0070 -78.1540 North 436 502 37,000  Level FlightAware
Sun 06:14:50 AM 34.0680 -78.1490 North 437 503 37,000  Level FlightAware
Sun 06:15:26 AM 34.1340 -78.1430 North 437 503 37,000  Level FlightAware
Sun 06:16:02 AM 34.1960 -78.1380 North 437 503 37,000  Level FlightAware
Sun 06:16:38 AM 34.2570 -78.1330 North 437 503 37,000  Level FlightAware
Sun 06:17:09 AM 34.3450 -78.1230 North 439 505 37,000  Level FlightAware
Sun 06:17:50 AM 34.1990 -78.1370 185° South 438 504 37,000  Level FlightAware
Sun 06:18:27 AM 34.2690 -78.1300 North 439 505 37,000  Level FlightAware
Sun 06:19:05 AM 34.3620 -78.1220 North 438 504 37,000  Level FlightAware
Sun 06:19:41 AM 34.4470 -78.1140 North 439 505 37,000  Level FlightAware
Sun 06:20:12 AM 34.5020 -78.1090 North 439 505 37,000  Level FlightAware
Sun 06:20:46 AM 34.5660 -78.1030 North 439 505 37,000  Level FlightAware
Sun 06:21:23 AM 34.6190 -78.0980 North 439 505 37,000  Level FlightAware
Sun 06:21:57 AM 34.6720 -78.0930 North 439 505 37,000  Level FlightAware
Sun 06:22:39 AM 34.7390 -78.0870 North 439 505 37,000  Level FlightAware
Sun 06:23:15 AM 34.7660 -78.0850 North 439 505 37,000  Level FlightAware
Sun 06:23:51 AM 34.7960 -78.0820 North 439 505 37,000  Level FlightAware
Sun 06:24:24 AM 34.8300 -78.0780 North 440 506 37,000  Level FlightAware
Sun 06:24:58 AM 34.8680 -78.0750 North 440 506 37,000  Level FlightAware
Sun 06:25:36 AM 34.9160 -78.0710 North 441 507 37,000  Level FlightAware
Sun 06:26:18 AM 34.9760 -78.0650 North 441 507 37,000  Level FlightAware
Sun 06:26:59 AM 35.5510 -78.0110 North 444 511 37,000  Level FlightAware
Sun 06:27:50 AM 35.6290 -78.0040 North 444 511 37,000  Level FlightAware
Sun 06:28:24 AM 35.7280 -77.9940 North 442 509 37,000  Level FlightAware
Sun 06:28:58 AM 35.7970 -77.9870 North 441 507 37,000  Level FlightAware
Sun 06:29:37 AM 35.8750 -77.9800 North 440 506 37,000  Level FlightAware
Sun 06:30:08 AM 35.9390 -77.9730 North 440 506 37,000  Level FlightAware
Sun 06:30:44 AM 36.0110 -77.9660 North 440 506 37,000  Level FlightAware
Sun 06:31:20 AM 36.0830 -77.9470 12° North 441 507 37,000  Level FlightAware
Sun 06:31:56 AM 36.1540 -77.9160 19° North 443 510 37,000  Level FlightAware
Sun 06:32:28 AM 36.2160 -77.8880 20° North 443 510 37,000  Level FlightAware
Sun 06:33:06 AM 36.2890 -77.8540 21° North 444 511 37,000  Level FlightAware
Sun 06:33:42 AM 36.3580 -77.8230 20° North 445 512 37,000  Level FlightAware
Sun 06:34:22 AM 36.4340 -77.7890 20° North 445 512 37,000  Level FlightAware
Sun 06:34:58 AM 36.5040 -77.7570 20° North 446 513 37,000  Level FlightAware
Sun 06:35:37 AM 36.5790 -77.7220 21° North 445 512 37,000  Level FlightAware
Sun 06:36:06 AM 36.6370 -77.6960 20° North 445 512 37,000  Level FlightAware
Sun 06:36:40 AM 36.6960 -77.6690 20° North 444 511 37,000  Level FlightAware
Sun 06:37:19 AM 36.7780 -77.6320 20° North 444 511 37,000  Level FlightAware
Sun 06:37:51 AM 36.8390 -77.6050 20° North 443 510 37,000  Level FlightAware
Sun 06:38:36 AM 36.9160 -77.5710 19° North 442 509 37,000  Level FlightAware
Sun 06:39:11 AM 36.9870 -77.5380 20° North 442 509 37,000  Level FlightAware
Sun 06:39:43 AM 37.0540 -77.5080 20° North 441 507 37,000  Level FlightAware
Sun 06:40:19 AM 37.1240 -77.4760 20° North 441 507 37,000  Level FlightAware
Sun 06:40:54 AM 37.1920 -77.4450 20° North 440 506 37,000  Level FlightAware
Sun 06:41:30 AM 37.2610 -77.4140 20° North 439 505 37,000  Level FlightAware
Sun 06:42:02 AM 37.3220 -77.3860 20° North 438 504 37,000  Level FlightAware
Sun 06:42:38 AM 37.3900 -77.3550 20° North 438 504 37,000  Level FlightAware
Sun 06:43:14 AM 37.4580 -77.3230 20° North 437 503 37,000  Level FlightAware
Sun 06:43:50 AM 37.5290 -77.2910 20° North 437 503 37,000  Level FlightAware
Sun 06:44:22 AM 37.5890 -77.2630 20° North 436 502 37,000  Level FlightAware
Sun 06:44:58 AM 37.6570 -77.2310 20° North 434 499 37,000  Level FlightAware
Sun 06:45:36 AM 37.7280 -77.1990 20° North 431 496 37,000  Level FlightAware
Sun 06:46:08 AM 37.7880 -77.1710 20° North 430 495 37,000  Level FlightAware
Sun 06:46:44 AM 37.8560 -77.1400 20° North 429 494 37,000  Level FlightAware
Sun 06:47:20 AM 37.9220 -77.1090 20° North 428 493 37,000  Level FlightAware
Sun 06:47:52 AM 37.9820 -77.0800 21° North 428 493 37,000  Level FlightAware
Sun 06:48:28 AM 38.0500 -77.0490 20° North 430 495 37,000  Level FlightAware
Sun 06:49:04 AM 38.1160 -77.0180 20° North 431 496 37,000  Level FlightAware
Sun 06:49:38 AM 38.1810 -76.9880 20° North 435 501 37,000  Level FlightAware
Sun 06:50:13 AM 38.2450 -76.9580 20° North 437 503 37,000  Level FlightAware
Sun 06:50:48 AM 38.3140 -76.9260 20° North 441 507 37,000  Level FlightAware
Sun 06:51:24 AM 38.3830 -76.8930 21° North 443 510 37,000  Level FlightAware
Sun 06:52:00 AM 38.4530 -76.8600 20° North 447 514 37,000  Level FlightAware
Sun 06:52:32 AM 38.5140 -76.8310 20° North 447 514 37,000  Level FlightAware
Sun 06:53:08 AM 38.5840 -76.7980 20° North 446 513 37,000  Level FlightAware
Sun 06:53:44 AM 38.6530 -76.7650 20° North 445 512 37,000  Level FlightAware
Sun 06:54:20 AM 38.7230 -76.7260 23° Northeast 452 520 37,000  Level FlightAware
Sun 06:54:52 AM 38.7740 -76.6780 36° Northeast 460 529 37,000  Level FlightAware
Sun 06:55:28 AM 38.8320 -76.6100 42° Northeast 461 531 37,000  Level FlightAware
Sun 06:56:04 AM 38.8900 -76.5420 42° Northeast 461 531 37,000  Level FlightAware
Sun 06:56:37 AM 38.9410 -76.4830 42° Northeast 462 532 37,000 -358 Level FlightAware
Sun 06:57:11 AM 38.9940 -76.4200 43° Northeast 461 531 36,600 -1,750 Descending FlightAware
Sun 06:57:49 AM 39.0550 -76.3490 42° Northeast 466 536 34,900 -2,676 Descending FlightAware
Sun 06:58:25 AM 39.1130 -76.2820 42° Northeast 472 543 33,300 -2,917 Descending FlightAware
Sun 06:59:01 AM 39.1700 -76.2150 42° Northeast 478 550 31,400 -3,353 Descending FlightAware
Sun 06:59:33 AM 39.2250 -76.1520 42° Northeast 485 558 29,500 -3,618 Descending FlightAware
Sun 07:00:09 AM 39.2850 -76.0800 43° Northeast 491 565 27,300 -2,667 Descending FlightAware
Sun 07:00:45 AM 39.3430 -76.0120 42° Northeast 484 557 26,300 -1,500 Descending FlightAware
Sun 07:01:17 AM 39.3980 -75.9480 42° Northeast 480 552 25,600 -1,235 Descending FlightAware
Sun 07:01:53 AM 39.4570 -75.8770 43° Northeast 485 558 24,900 -1,083 Descending FlightAware
Sun 07:02:29 AM 39.5140 -75.8100 42° Northeast 479 551 24,300 -1,083 Descending FlightAware
Sun 07:03:05 AM 39.5720 -75.7410 43° Northeast 474 545 23,600 -1,043 Descending FlightAware
Sun 07:03:38 AM 39.6270 -75.6760 42° Northeast 466 536 23,100 -971 Descending FlightAware
Sun 07:04:13 AM 39.6800 -75.6130 42° Northeast 458 527 22,500 -1,726 Descending FlightAware
Sun 07:04:51 AM 39.7410 -75.5390 43° Northeast 453 521 21,000 -2,348 Descending FlightAware
Sun 07:05:22 AM 39.7870 -75.4840 43° Northeast 437 503 19,800 -2,824 Descending FlightAware
Sun 07:05:59 AM 39.8420 -75.4160 43° Northeast 432 497 17,800 -2,795 Descending FlightAware
Sun 07:06:35 AM 39.8940 -75.3540 42° Northeast 416 479 16,400 -2,435 Descending FlightAware
Sun 07:07:08 AM 39.9390 -75.2990 43° Northeast 407 468 15,000 -2,597 Descending FlightAware
Sun 07:07:42 AM 39.9870 -75.2420 42° Northeast 398 458 13,500 -2,500 Descending FlightAware
Sun 07:08:20 AM 40.0350 -75.1820 44° Northeast 389 448 12,000 -1,644 Descending FlightAware
Sun 07:08:55 AM 40.0790 -75.1290 43° Northeast 359 413 11,500 -618 Descending FlightAware
Sun 07:09:28 AM 40.1190 -75.0810 43° Northeast 324 373 11,300 -529 Descending FlightAware
Sun 07:10:03 AM 40.1540 -75.0370 44° Northeast 301 346 10,900 -917 Descending FlightAware
Sun 07:10:40 AM 40.1920 -74.9900 43° Northeast 289 333 10,200 -1,080 Descending FlightAware
Sun 07:10:53 AM 40.2030 -74.9770 42° Northeast 285 328 10,000 -1,059 Descending FlightAware
Sun 07:11:31 AM 40.2400 -74.9320 43° Northeast 274 315 9,300 -1,091 Descending FlightAware
Sun 07:11:48 AM 40.2560 -74.9120 44° Northeast 268 308 9,000 -923 Descending FlightAware
Sun 07:12:10 AM 40.2760 -74.8870 44° Northeast 279 321 8,700 -894 Descending FlightAware
Sun 07:12:35 AM 40.2980 -74.8570 46° Northeast 273 314 8,300 -800 Descending FlightAware
Sun 07:12:55 AM 40.3150 -74.8330 47° Northeast 270 311 8,100 -316 Descending FlightAware
Sun 07:13:13 AM 40.3300 -74.8110 48° Northeast 272 313 8,100 -150 Level FlightAware
Sun 07:13:35 AM 40.3500 -74.7840 46° Northeast 275 316 8,000 -913 Descending FlightAware
Sun 07:13:59 AM 40.3700 -74.7560 47° Northeast 275 316 7,400 -1,600 Descending FlightAware
Sun 07:14:20 AM 40.3900 -74.7270 48° Northeast 278 320 6,800 -1,500 Descending FlightAware
Sun 07:14:39 AM 40.4070 -74.7040 46° Northeast 277 319 6,400 -1,077 Descending FlightAware
Sun 07:14:59 AM 40.4230 -74.6810 48° Northeast 274 315 6,100 -400 Descending FlightAware
Sun 07:15:24 AM 40.4480 -74.6530 40° Northeast 268 308 6,100  Level FlightAware
Sun 07:15:34 AM 40.4580 -74.6500 13° North 266 306 6,100  Level FlightAware
Sun 07:15:56 AM 40.4850 -74.6470 North 266 306 6,100  Level FlightAware
Sun 07:16:20 AM 40.5160 -74.6430 North 266 306 6,100  Level FlightAware
Sun 07:16:40 AM 40.5410 -74.6380 North 269 310 6,100  Level FlightAware
Sun 07:16:59 AM 40.5620 -74.6330 10° North 268 308 6,100  Level FlightAware
Sun 07:17:11 AM 40.5770 -74.6290 11° North 266 306 6,100 -167 Level FlightAware
Sun 07:17:35 AM 40.6060 -74.6200 13° North 263 303 6,000 -522 Descending FlightAware
Sun 07:17:57 AM 40.6320 -74.6130 12° North 262 302 5,700 -1,077 Descending FlightAware
Sun 07:18:14 AM 40.6530 -74.6070 12° North 260 299 5,300 -973 Descending FlightAware
Sun 07:18:34 AM 40.6740 -74.6010 12° North 254 292 5,100 -273 Descending FlightAware
Sun 07:18:58 AM 40.7050 -74.5920 12° North 265 305 5,100  Level FlightAware
Sun 07:19:21 AM 40.7310 -74.5850 12° North 265 305 5,100  Level FlightAware
Sun 07:19:40 AM 40.7550 -74.5790 11° North 266 306 5,100  Level FlightAware
Sun 07:19:58 AM 40.7760 -74.5730 12° North 266 306 5,100  Level FlightAware
Sun 07:20:13 AM 40.7930 -74.5690 10° North 264 304 5,100  Level FlightAware
Sun 07:20:36 AM 40.8230 -74.5600 13° North 267 307 5,100  Level FlightAware
Sun 07:20:42 AM 40.8290 -74.5560 27° Northeast 270 311 5,100  Level FlightAware
Sun 07:20:50 AM 40.8370 -74.5490 34° Northeast 274 315 5,100  Level FlightAware
Sun 07:20:58 AM 40.8440 -74.5400 44° Northeast 278 320 5,100  Level FlightAware
Sun 07:21:07 AM 40.8490 -74.5260 65° Northeast 284 327 5,100  Level FlightAware
Sun 07:21:18 AM 40.8520 -74.5040 80° East 290 334 5,100  Level FlightAware
Sun 07:21:34 AM 40.8523 -74.4756 89° East 292 336 5,100  Level FlightAware
Sun 07:21:49 AM 40.8520 -74.4487 91° East 283 326 5,100 -857 Level FlightAware
Sun 07:22:30 AM 40.8520 -74.3810 90° East 274 315 4,300 -1,158 Descending FlightAware
Sun 07:22:46 AM 40.8521 -74.3534 90° East 275 316 4,000 -1,119 Descending FlightAware
Sun 07:23:29 AM 40.8540 -74.2820 88° East 269 310 3,200 -1,000 Descending FlightAware
Sun 07:23:40 AM 40.8542 -74.2648 89° East 275 316 3,100 -667 Descending FlightAware
Sun 07:23:47 AM 40.8537 -74.2530 93° East 267 307 3,000 -600 Descending FlightAware
Sun 07:23:50 AM 40.8528 -74.2477 103° East 267 307 3,000 -857 Level FlightAware
Sun 07:23:54 AM 40.8515 -74.2417 106° East 266 306 2,900 -923 Descending FlightAware
Sun 07:24:16 AM 40.8400 -74.2101 116° Southeast 258 297 2,600 -400 Descending FlightAware
Sun 07:24:39 AM 40.8281 -74.1788 117° Southeast 231 266 2,600  Level FlightAware
Sun 07:24:59 AM 40.8190 -74.1553 117° Southeast 214 246 2,600  Level FlightAware
Sun 07:25:09 AM 40.8146 -74.1443 118° Southeast 207 238 2,600  Level FlightAware
Sun 07:25:13 AM 40.8125 -74.1399 122° Southeast 205 236 2,600 -667 Level FlightAware
Sun 07:25:18 AM 40.8096 -74.1354 130° Southeast 202 232 2,500 -1,200 Descending FlightAware
Sun 07:25:23 AM 40.8056 -74.1309 140° Southeast 198 228 2,400 -1,200 Descending FlightAware
Sun 07:25:33 AM 40.7989 -74.1246 145° Southeast 192 221 2,200 -1,263 Descending FlightAware
Sun 07:25:42 AM 40.7915 -74.1180 146° Southeast 196 226 2,000 -1,286 Descending FlightAware
Sun 07:25:47 AM 40.7881 -74.1151 147° Southeast 200 230 1,900 -1,200 Descending FlightAware
Sun 07:25:52 AM 40.7840 -74.1124 153° Southeast 197 227 1,800 -1,091 Descending FlightAware
Sun 07:25:58 AM 40.7792 -74.1098 158° South 189 217 1,700 -667 Descending FlightAware
Sun 07:26:01 AM 40.7766 -74.1091 168° South 183 211 1,700  Level FlightAware
Sun 07:26:04 AM 40.7741 -74.1089 177° South 175 201 1,700 -1,000 Level FlightAware
Sun 07:26:07 AM 40.7713 -74.1092 185° South 168 193 1,600 -857 Descending FlightAware
Sun 07:26:11 AM 40.7691 -74.1100 195° South 161 185 1,600 -857 Level FlightAware
Sun 07:26:14 AM 40.7667 -74.1113 202° Southwest 156 180 1,500 -857 Descending FlightAware
Sun 07:26:18 AM 40.7646 -74.1131 213° Southwest 154 177 1,500 -600 Level FlightAware
Sun 07:26:24 AM 40.7612 -74.1172 222° Southwest 149 171 1,400 -857 Descending FlightAware
Sun 07:26:32 AM 40.7579 -74.1220 228° Southwest 144 166 1,300 -1,304 Descending FlightAware
Sun 07:26:47 AM 40.7493 -74.1297 214° Southwest 145 167 900 -1,017 Descending FlightAware
Sun 07:27:31 AM 40.7270 -74.1450 207° Southwest 129 148 300 -787 Descending FlightAware
Sun 07:27:48 AM 40.7162 -74.1517 205° Southwest 144 166 100 -706 Descending FlightAware

Login

Don't have an account? Register now (free) for customized features, flight alerts, and more!